Decoded Metar for GCXO (TENERIFE in SPAIN) (IATA:TFN) | Meteo·Mobile Aviation Weather
aviador You're here:

GCXO Decoded Metar

TENERIFE in SPAIN
Report Time2019-07-19 18:30:00
UTC Time2019-07-19 18:46:15
Flight Rules ifr IFR
Wind300° at 22 Gusting to 32 kt
W.Decomp.*RWY 30: 21.9 kt HW 1.9 kt RCW
Visibility9999 m
Phenomena:N/A
Clouds:Scattered 003 Hf
Broken 006 Hf
Expected CloudBase > 800 ft AGL from Temp-Dew spread
Ceiling600 ft
Temp18°C (ISA +7)
Dew Point16°C (88% RH)
AAT12.1°C
QNH1019 hPa
Density Alt2,956 ft
Elevation2,073 ft
Report Wrong Elevation
Raw Report
GCXO 191830Z 30022G32KT 9999 SCT003 BKN006 18/16 Q1019 WS R30
NOSIG=

Extra information for GCXO:More info

Metar Taf Metar & Taf Last 4 Metars F.Rules Stats Wind Profile Meteogram Temp Stats Airport Information Weather charts Add Link Nearby VenuesMetar ALERT Operation Metar Decoded Social comments